sensor_id;sensor_type;location;lat;lon;timestamp;pressure;altitude;pressure_sealevel;temperature;humidity
45129;BME280;35512;56.312;101.728;2022-09-02T00:00:06;95865.75;;;9.38;81.03
45129;BME280;35512;56.312;101.728;2022-09-02T00:02:38;95869.66;;;9.44;80.64
45129;BME280;35512;56.312;101.728;2022-09-02T00:05:07;95856.88;;;9.38;80.75
45129;BME280;35512;56.312;101.728;2022-09-02T00:07:37;95875.09;;;9.48;80.89
45129;BME280;35512;56.312;101.728;2022-09-02T00:10:06;95864.06;;;9.60;81.07
45129;BME280;35512;56.312;101.728;2022-09-02T00:12:36;95875.28;;;9.66;81.30
45129;BME280;35512;56.312;101.728;2022-09-02T00:15:06;95849.06;;;9.63;81.14
45129;BME280;35512;56.312;101.728;2022-09-02T00:17:35;95855.22;;;9.63;81.44
45129;BME280;35512;56.312;101.728;2022-09-02T00:20:09;95855.59;;;9.62;81.50
45129;BME280;35512;56.312;101.728;2022-09-02T00:22:38;95855.94;;;9.57;81.53
45129;BME280;35512;56.312;101.728;2022-09-02T00:25:07;95851.34;;;9.57;81.52
45129;BME280;35512;56.312;101.728;2022-09-02T00:27:37;95853.66;;;9.62;81.89
45129;BME280;35512;56.312;101.728;2022-09-02T00:30:06;95849.88;;;9.67;81.75
45129;BME280;35512;56.312;101.728;2022-09-02T00:32:36;95845.69;;;9.73;81.88
45129;BME280;35512;56.312;101.728;2022-09-02T00:35:05;95844.16;;;9.72;81.78
45129;BME280;35512;56.312;101.728;2022-09-02T00:37:36;95840.59;;;9.64;81.75
45129;BME280;35512;56.312;101.728;2022-09-02T00:40:06;95843.25;;;9.57;81.64
45129;BME280;35512;56.312;101.728;2022-09-02T00:42:36;95847.41;;;9.51;81.90
45129;BME280;35512;56.312;101.728;2022-09-02T00:45:07;95847.41;;;9.51;82.02
45129;BME280;35512;56.312;101.728;2022-09-02T00:47:37;95843.94;;;9.51;82.27
45129;BME280;35512;56.312;101.728;2022-09-02T00:50:09;95830.47;;;9.51;82.04
45129;BME280;35512;56.312;101.728;2022-09-02T00:52:47;95839.63;;;9.46;82.12
45129;BME280;35512;56.312;101.728;2022-09-02T00:55:24;95839.19;;;9.40;82.35
45129;BME280;35512;56.312;101.728;2022-09-02T00:57:58;95845.00;;;9.42;82.40
45129;BME280;35512;56.312;101.728;2022-09-02T01:00:33;95843.41;;;9.38;82.20
45129;BME280;35512;56.312;101.728;2022-09-02T01:03:11;95854.56;;;9.36;82.54
45129;BME280;35512;56.312;101.728;2022-09-02T01:05:51;95844.09;;;9.31;82.71
45129;BME280;35512;56.312;101.728;2022-09-02T01:08:32;95862.25;;;9.34;82.56
45129;BME280;35512;56.312;101.728;2022-09-02T01:11:03;95864.97;;;9.38;82.87
45129;BME280;35512;56.312;101.728;2022-09-02T01:13:37;95861.06;;;9.35;83.09
45129;BME280;35512;56.312;101.728;2022-09-02T01:18:48;95867.41;;;9.50;82.89
45129;BME280;35512;56.312;101.728;2022-09-02T01:21:18;95870.16;;;9.54;82.92
45129;BME280;35512;56.312;101.728;2022-09-02T01:23:47;95884.00;;;9.52;82.86
45129;BME280;35512;56.312;101.728;2022-09-02T01:26:18;95882.88;;;9.57;83.12
45129;BME280;35512;56.312;101.728;2022-09-02T01:28:47;95886.00;;;9.59;83.11
45129;BME280;35512;56.312;101.728;2022-09-02T01:31:17;95877.53;;;9.60;82.94
45129;BME280;35512;56.312;101.728;2022-09-02T01:33:46;95864.81;;;9.57;83.08
45129;BME280;35512;56.312;101.728;2022-09-02T01:36:16;95868.69;;;9.60;83.09
45129;BME280;35512;56.312;101.728;2022-09-02T01:38:45;95879.16;;;9.69;83.30
45129;BME280;35512;56.312;101.728;2022-09-02T01:41:14;95871.44;;;9.67;83.58
45129;BME280;35512;56.312;101.728;2022-09-02T01:43:44;95873.00;;;9.68;83.44
45129;BME280;35512;56.312;101.728;2022-09-02T01:46:12;95874.63;;;9.76;83.52
45129;BME280;35512;56.312;101.728;2022-09-02T01:48:43;95866.16;;;9.78;83.47
45129;BME280;35512;56.312;101.728;2022-09-02T01:51:16;95855.78;;;9.80;83.46
45129;BME280;35512;56.312;101.728;2022-09-02T01:53:47;95857.03;;;9.90;83.85
45129;BME280;35512;56.312;101.728;2022-09-02T01:56:16;95867.94;;;10.04;83.65
45129;BME280;35512;56.312;101.728;2022-09-02T01:58:45;95859.56;;;10.13;83.59
45129;BME280;35512;56.312;101.728;2022-09-02T02:01:14;95858.06;;;10.19;83.50
45129;BME280;35512;56.312;101.728;2022-09-02T02:03:46;95864.19;;;10.16;83.47
45129;BME280;35512;56.312;101.728;2022-09-02T02:06:16;95862.97;;;10.10;83.55
45129;BME280;35512;56.312;101.728;2022-09-02T02:08:47;95842.81;;;9.96;83.69
45129;BME280;35512;56.312;101.728;2022-09-02T02:11:22;95840.91;;;9.97;84.01
45129;BME280;35512;56.312;101.728;2022-09-02T02:14:02;95847.50;;;10.00;84.27
45129;BME280;35512;56.312;101.728;2022-09-02T02:16:31;95843.25;;;9.98;83.95
45129;BME280;35512;56.312;101.728;2022-09-02T02:19:01;95844.78;;;10.00;84.37
45129;BME280;35512;56.312;101.728;2022-09-02T02:21:30;95840.97;;;10.04;84.46
45129;BME280;35512;56.312;101.728;2022-09-02T02:23:59;95833.25;;;10.03;84.57
45129;BME280;35512;56.312;101.728;2022-09-02T02:26:29;95837.50;;;10.04;84.60
45129;BME280;35512;56.312;101.728;2022-09-02T02:28:58;95838.28;;;10.04;84.37
45129;BME280;35512;56.312;101.728;2022-09-02T02:31:28;95836.28;;;9.97;84.55
45129;BME280;35512;56.312;101.728;2022-09-02T02:33:57;95830.56;;;10.03;84.91
45129;BME280;35512;56.312;101.728;2022-09-02T02:36:27;95834.44;;;10.09;85.10
45129;BME280;35512;56.312;101.728;2022-09-02T02:38:56;95832.63;;;10.20;85.22
45129;BME280;35512;56.312;101.728;2022-09-02T02:41:28;95831.91;;;10.30;84.98
45129;BME280;35512;56.312;101.728;2022-09-02T02:43:58;95831.50;;;10.25;84.94
45129;BME280;35512;56.312;101.728;2022-09-02T02:46:28;95840.31;;;10.18;84.87
45129;BME280;35512;56.312;101.728;2022-09-02T02:48:59;95840.66;;;10.13;84.71
45129;BME280;35512;56.312;101.728;2022-09-02T02:51:28;95845.22;;;10.05;84.89
45129;BME280;35512;56.312;101.728;2022-09-02T02:53:58;95852.09;;;9.99;84.89
45129;BME280;35512;56.312;101.728;2022-09-02T02:56:28;95852.03;;;9.92;84.98
45129;BME280;35512;56.312;101.728;2022-09-02T02:58:58;95863.53;;;9.85;85.28
45129;BME280;35512;56.312;101.728;2022-09-02T03:01:33;95861.16;;;9.80;85.21
45129;BME280;35512;56.312;101.728;2022-09-02T03:04:05;95857.31;;;9.81;85.58
45129;BME280;35512;56.312;101.728;2022-09-02T03:06:34;95864.75;;;9.91;85.73
45129;BME280;35512;56.312;101.728;2022-09-02T03:09:04;95868.66;;;9.97;85.94
45129;BME280;35512;56.312;101.728;2022-09-02T03:11:35;95856.72;;;9.98;85.47
45129;BME280;35512;56.312;101.728;2022-09-02T03:14:06;95854.41;;;9.97;85.76
45129;BME280;35512;56.312;101.728;2022-09-02T03:16:35;95858.28;;;10.03;85.82
45129;BME280;35512;56.312;101.728;2022-09-02T03:19:04;95848.34;;;10.11;85.77
45129;BME280;35512;56.312;101.728;2022-09-02T03:21:34;95850.75;;;10.23;86.12
45129;BME280;35512;56.312;101.728;2022-09-02T03:24:10;95844.22;;;10.24;85.84
45129;BME280;35512;56.312;101.728;2022-09-02T03:26:41;95844.59;;;10.26;85.67
45129;BME280;35512;56.312;101.728;2022-09-02T03:29:11;95841.13;;;10.26;85.91
45129;BME280;35512;56.312;101.728;2022-09-02T03:31:42;95844.59;;;10.26;86.01
45129;BME280;35512;56.312;101.728;2022-09-02T03:34:13;95843.13;;;10.32;86.06
45129;BME280;35512;56.312;101.728;2022-09-02T03:36:42;95833.97;;;10.41;86.22
45129;BME280;35512;56.312;101.728;2022-09-02T03:39:13;95828.59;;;10.48;85.88
45129;BME280;35512;56.312;101.728;2022-09-02T03:41:46;95823.25;;;10.55;85.86
45129;BME280;35512;56.312;101.728;2022-09-02T03:44:18;95827.97;;;10.69;85.93
45129;BME280;35512;56.312;101.728;2022-09-02T03:46:47;95823.75;;;10.75;85.82
45129;BME280;35512;56.312;101.728;2022-09-02T03:49:16;95823.75;;;10.72;85.79
45129;BME280;35512;56.312;101.728;2022-09-02T03:51:45;95827.97;;;10.73;86.05
45129;BME280;35512;56.312;101.728;2022-09-02T03:54:14;95826.81;;;10.74;85.95
45129;BME280;35512;56.312;101.728;2022-09-02T03:56:44;95822.94;;;10.68;85.87
45129;BME280;35512;56.312;101.728;2022-09-02T03:59:14;95827.16;;;10.65;85.89
45129;BME280;35512;56.312;101.728;2022-09-02T04:01:44;95823.69;;;10.64;86.05
45129;BME280;35512;56.312;101.728;2022-09-02T04:04:15;95800.13;;;10.58;86.23
45129;BME280;35512;56.312;101.728;2022-09-02T04:06:51;95819.47;;;10.74;86.19
45129;BME280;35512;56.312;101.728;2022-09-02T04:09:20;95811.75;;;10.73;86.29
45129;BME280;35512;56.312;101.728;2022-09-02T04:11:50;95814.13;;;10.78;86.46
45129;BME280;35512;56.312;101.728;2022-09-02T04:14:19;95817.22;;;10.80;86.25
45129;BME280;35512;56.312;101.728;2022-09-02T04:16:48;95802.53;;;10.81;86.11
45129;BME280;35512;56.312;101.728;2022-09-02T04:19:17;95798.31;;;10.83;86.01
45129;BME280;35512;56.312;101.728;2022-09-02T04:21:46;95794.06;;;10.79;85.90
45129;BME280;35512;56.312;101.728;2022-09-02T04:24:17;95793.31;;;10.78;86.01
45129;BME280;35512;56.312;101.728;2022-09-02T04:26:49;95796.78;;;10.86;86.44
45129;BME280;35512;56.312;101.728;2022-09-02T04:29:18;95796.03;;;10.86;86.05
45129;BME280;35512;56.312;101.728;2022-09-02T04:31:51;95797.56;;;10.90;86.36
45129;BME280;35512;56.312;101.728;2022-09-02T04:34:21;95797.56;;;10.87;86.02
45129;BME280;35512;56.312;101.728;2022-09-02T04:36:51;95795.63;;;10.87;86.01
45129;BME280;35512;56.312;101.728;2022-09-02T04:39:21;95804.91;;;10.86;86.29
45129;BME280;35512;56.312;101.728;2022-09-02T04:41:52;95798.69;;;10.82;86.24
45129;BME280;35512;56.312;101.728;2022-09-02T04:44:22;95789.00;;;10.74;86.13
45129;BME280;35512;56.312;101.728;2022-09-02T04:46:52;95790.13;;;10.65;86.38
45129;BME280;35512;56.312;101.728;2022-09-02T04:49:22;95784.72;;;10.65;86.66
45129;BME280;35512;56.312;101.728;2022-09-02T04:51:53;95784.38;;;10.71;86.24
45129;BME280;35512;56.312;101.728;2022-09-02T04:54:24;95775.50;;;10.74;86.31
45129;BME280;35512;56.312;101.728;2022-09-02T04:56:56;95767.38;;;10.67;86.32
45129;BME280;35512;56.312;101.728;2022-09-02T04:59:26;95769.28;;;10.59;86.01
45129;BME280;35512;56.312;101.728;2022-09-02T05:02:06;95777.00;;;10.64;86.57
45129;BME280;35512;56.312;101.728;2022-09-02T05:04:36;95770.84;;;10.67;86.40
45129;BME280;35512;56.312;101.728;2022-09-02T05:07:11;95764.69;;;10.70;86.60
45129;BME280;35512;56.312;101.728;2022-09-02T05:09:44;95760.47;;;10.69;86.56
45129;BME280;35512;56.312;101.728;2022-09-02T05:12:17;95766.59;;;10.66;86.45
45129;BME280;35512;56.312;101.728;2022-09-02T05:14:53;95753.47;;;10.64;86.71
45129;BME280;35512;56.312;101.728;2022-09-02T05:17:24;95756.22;;;10.72;86.71
45129;BME280;35512;56.312;101.728;2022-09-02T05:19:54;95751.63;;;10.83;86.86
45129;BME280;35512;56.312;101.728;2022-09-02T05:22:23;95754.75;;;10.89;86.83
45129;BME280;35512;56.312;101.728;2022-09-02T05:24:55;95752.84;;;11.00;86.88
45129;BME280;35512;56.312;101.728;2022-09-02T05:27:24;95754.41;;;11.01;86.54
45129;BME280;35512;56.312;101.728;2022-09-02T05:29:55;95752.44;;;10.91;86.13
45129;BME280;35512;56.312;101.728;2022-09-02T05:32:25;95755.50;;;10.86;86.43
45129;BME280;35512;56.312;101.728;2022-09-02T05:34:55;95742.00;;;10.86;86.58
45129;BME280;35512;56.312;101.728;2022-09-02T05:37:25;95743.19;;;10.95;86.31
45129;BME280;35512;56.312;101.728;2022-09-02T05:39:54;95736.28;;;11.09;86.84
45129;BME280;35512;56.312;101.728;2022-09-02T05:42:25;95749.06;;;11.30;86.50
45129;BME280;35512;56.312;101.728;2022-09-02T05:44:56;95732.09;;;11.55;86.69
45129;BME280;35512;56.312;101.728;2022-09-02T05:47:26;95736.00;;;11.64;86.50
45129;BME280;35512;56.312;101.728;2022-09-02T05:49:55;95736.38;;;11.74;86.15
45129;BME280;35512;56.312;101.728;2022-09-02T05:52:25;95739.44;;;11.72;86.44
45129;BME280;35512;56.312;101.728;2022-09-02T05:54:55;95732.91;;;11.77;85.98
45129;BME280;35512;56.312;101.728;2022-09-02T05:57:25;95734.44;;;11.92;86.33
45129;BME280;35512;56.312;101.728;2022-09-02T06:00:04;95734.88;;;11.94;86.01
45129;BME280;35512;56.312;101.728;2022-09-02T06:02:50;95735.59;;;11.91;86.12
45129;BME280;35512;56.312;101.728;2022-09-02T06:05:39;95737.91;;;11.86;86.38
45129;BME280;35512;56.312;101.728;2022-09-02T06:08:18;95729.03;;;11.78;86.38
45129;BME280;35512;56.312;101.728;2022-09-02T06:10:47;95730.97;;;11.81;86.73
45129;BME280;35512;56.312;101.728;2022-09-02T06:13:20;95738.31;;;11.77;86.12
45129;BME280;35512;56.312;101.728;2022-09-02T06:15:53;95736.38;;;11.59;86.50
45129;BME280;35512;56.312;101.728;2022-09-02T06:18:25;95729.78;;;11.39;86.17
45129;BME280;35512;56.312;101.728;2022-09-02T06:20:55;95717.78;;;11.14;86.46
45129;BME280;35512;56.312;101.728;2022-09-02T06:23:33;95718.91;;;11.13;86.94
45129;BME280;35512;56.312;101.728;2022-09-02T06:26:03;95720.88;;;11.20;87.30
45129;BME280;35512;56.312;101.728;2022-09-02T06:28:33;95730.16;;;11.26;87.19
45129;BME280;35512;56.312;101.728;2022-09-02T06:31:11;95720.88;;;11.27;86.92
45129;BME280;35512;56.312;101.728;2022-09-02T06:33:45;95720.88;;;11.31;87.08
45129;BME280;35512;56.312;101.728;2022-09-02T06:36:17;95724.34;;;11.31;87.11
45129;BME280;35512;56.312;101.728;2022-09-02T06:38:50;95712.41;;;11.29;87.04
45129;BME280;35512;56.312;101.728;2022-09-02T06:41:23;95702.72;;;11.24;86.91
45129;BME280;35512;56.312;101.728;2022-09-02T06:43:57;95717.00;;;11.14;86.66
45129;BME280;35512;56.312;101.728;2022-09-02T06:46:30;95707.69;;;11.04;87.05
45129;BME280;35512;56.312;101.728;2022-09-02T06:49:04;95699.59;;;11.04;87.22
45129;BME280;35512;56.312;101.728;2022-09-02T06:51:40;95698.81;;;11.00;87.36
45129;BME280;35512;56.312;101.728;2022-09-02T06:54:13;95688.78;;;10.97;87.27
45129;BME280;35512;56.312;101.728;2022-09-02T06:56:45;95684.91;;;10.94;87.18
45129;BME280;35512;56.312;101.728;2022-09-02T06:59:21;95674.50;;;11.00;87.44
45129;BME280;35512;56.312;101.728;2022-09-02T07:01:57;95678.38;;;11.03;87.32
45129;BME280;35512;56.312;101.728;2022-09-02T07:04:28;95676.06;;;11.05;87.09
45129;BME280;35512;56.312;101.728;2022-09-02T07:07:21;95676.06;;;11.08;87.61
45129;BME280;35512;56.312;101.728;2022-09-02T07:10:00;95670.28;;;11.10;87.52
45129;BME280;35512;56.312;101.728;2022-09-02T07:12:33;95667.16;;;11.04;87.12
45129;BME280;35512;56.312;101.728;2022-09-02T07:15:08;95673.72;;;10.92;87.15
45129;BME280;35512;56.312;101.728;2022-09-02T07:17:40;95670.25;;;10.88;87.16
45129;BME280;35512;56.312;101.728;2022-09-02T07:20:13;95671.78;;;10.86;87.38
45129;BME280;35512;56.312;101.728;2022-09-02T07:22:48;95669.44;;;10.80;87.61
45129;BME280;35512;56.312;101.728;2022-09-02T07:25:20;95676.00;;;10.76;87.70
45129;BME280;35512;56.312;101.728;2022-09-02T07:27:50;95679.03;;;10.67;87.55
45129;BME280;35512;56.312;101.728;2022-09-02T07:30:20;95676.72;;;10.65;88.03
45129;BME280;35512;56.312;101.728;2022-09-02T07:32:55;95672.47;;;10.64;88.08
45129;BME280;35512;56.312;101.728;2022-09-02T07:35:27;95681.38;;;10.65;88.27
45129;BME280;35512;56.312;101.728;2022-09-02T07:37:56;95660.06;;;10.45;88.14
45129;BME280;35512;56.312;101.728;2022-09-02T07:40:26;95683.22;;;10.54;88.00
45129;BME280;35512;56.312;101.728;2022-09-02T07:42:56;95671.66;;;10.53;88.43
45129;BME280;35512;56.312;101.728;2022-09-02T07:45:25;95662.03;;;10.52;88.08
45129;BME280;35512;56.312;101.728;2022-09-02T07:47:54;95662.03;;;10.48;88.26
45129;BME280;35512;56.312;101.728;2022-09-02T07:50:24;95671.28;;;10.55;88.25
45129;BME280;35512;56.312;101.728;2022-09-02T07:52:57;95634.19;;;10.34;88.23
45129;BME280;35512;56.312;101.728;2022-09-02T07:55:30;95657.41;;;10.56;88.31
45129;BME280;35512;56.312;101.728;2022-09-02T07:57:59;95644.72;;;10.68;88.52
45129;BME280;35512;56.312;101.728;2022-09-02T08:00:29;95658.66;;;10.84;88.38
45129;BME280;35512;56.312;101.728;2022-09-02T08:03:29;95646.72;;;10.92;88.22
45129;BME280;35512;56.312;101.728;2022-09-02T08:05:59;95645.19;;;10.95;88.13
45129;BME280;35512;56.312;101.728;2022-09-02T08:08:28;95647.88;;;10.91;88.39
45129;BME280;35512;56.312;101.728;2022-09-02T08:10:57;95645.16;;;10.88;87.98
45129;BME280;35512;56.312;101.728;2022-09-02T08:13:26;95647.84;;;10.84;88.03
45129;BME280;35512;56.312;101.728;2022-09-02T08:15:55;95652.47;;;10.83;88.41
45129;BME280;35512;56.312;101.728;2022-09-02T08:18:24;95645.13;;;10.80;88.39
45129;BME280;35512;56.312;101.728;2022-09-02T08:20:53;95648.63;;;10.77;88.40
45129;BME280;35512;56.312;101.728;2022-09-02T08:23:23;95646.28;;;10.79;88.42
45129;BME280;35512;56.312;101.728;2022-09-02T08:26:04;95647.44;;;10.82;88.64
45129;BME280;35512;56.312;101.728;2022-09-02T08:28:33;95636.66;;;10.78;88.31
45129;BME280;35512;56.312;101.728;2022-09-02T08:31:06;95639.34;;;10.78;88.50
45129;BME280;35512;56.312;101.728;2022-09-02T08:33:35;95643.59;;;10.79;88.32
45129;BME280;35512;56.312;101.728;2022-09-02T08:36:06;95630.84;;;10.76;88.33
45129;BME280;35512;56.312;101.728;2022-09-02T08:38:37;95635.84;;;10.74;88.23
45129;BME280;35512;56.312;101.728;2022-09-02T08:44:22;95625.03;;;10.74;88.49
45129;BME280;35512;56.312;101.728;2022-09-02T08:46:55;95625.03;;;10.74;88.67
45129;BME280;35512;56.312;101.728;2022-09-02T08:49:40;95626.59;;;10.75;88.32
45129;BME280;35512;56.312;101.728;2022-09-02T08:52:18;95627.00;;;10.74;88.40
45129;BME280;35512;56.312;101.728;2022-09-02T08:54:52;95625.44;;;10.73;88.71
45129;BME280;35512;56.312;101.728;2022-09-02T08:57:26;95628.53;;;10.75;88.52
45129;BME280;35512;56.312;101.728;2022-09-02T08:59:57;95627.75;;;10.74;88.62
45129;BME280;35512;56.312;101.728;2022-09-02T09:06:15;95622.75;;;10.69;88.75
45129;BME280;35512;56.312;101.728;2022-09-02T09:08:59;95638.56;;;10.71;88.87
45129;BME280;35512;56.312;101.728;2022-09-02T09:11:44;95629.31;;;10.72;88.85
45129;BME280;35512;56.312;101.728;2022-09-02T09:14:46;95634.69;;;10.75;89.09
45129;BME280;35512;56.312;101.728;2022-09-02T09:17:40;95620.44;;;10.75;88.71
45129;BME280;35512;56.312;101.728;2022-09-02T09:20:20;95613.13;;;10.82;88.66
45129;BME280;35512;56.312;101.728;2022-09-02T09:22:55;95618.94;;;10.95;88.88
45129;BME280;35512;56.312;101.728;2022-09-02T09:25:26;95617.00;;;11.10;89.12
45129;BME280;35512;56.312;101.728;2022-09-02T09:27:58;95608.16;;;11.10;88.99
45129;BME280;35512;56.312;101.728;2022-09-02T09:30:28;95610.44;;;11.15;88.60
45129;BME280;35512;56.312;101.728;2022-09-02T09:32:58;95616.22;;;11.13;88.50
45129;BME280;35512;56.312;101.728;2022-09-02T09:35:47;95607.34;;;11.02;88.70
45129;BME280;35512;56.312;101.728;2022-09-02T09:38:31;95605.03;;;11.01;88.71
45129;BME280;35512;56.312;101.728;2022-09-02T09:41:17;95603.09;;;10.94;88.75
45129;BME280;35512;56.312;101.728;2022-09-02T09:43:47;95593.84;;;10.91;88.99
45129;BME280;35512;56.312;101.728;2022-09-02T09:46:28;95594.22;;;10.82;88.63
45129;BME280;35512;56.312;101.728;2022-09-02T09:48:57;95586.88;;;10.79;88.78
45129;BME280;35512;56.312;101.728;2022-09-02T09:51:27;95578.78;;;10.79;88.99
45129;BME280;35512;56.312;101.728;2022-09-02T09:54:16;95566.44;;;10.78;88.91
45129;BME280;35512;56.312;101.728;2022-09-02T09:56:46;95578.81;;;10.87;89.19
45129;BME280;35512;56.312;101.728;2022-09-02T09:59:39;95574.53;;;10.82;88.92
45129;BME280;35512;56.312;101.728;2022-09-02T10:02:20;95574.16;;;10.76;88.86
45129;BME280;35512;56.312;101.728;2022-09-02T10:05:18;95566.81;;;10.70;88.98
45129;BME280;35512;56.312;101.728;2022-09-02T10:07:58;95561.00;;;10.71;88.70
45129;BME280;35512;56.312;101.728;2022-09-02T10:10:30;95557.94;;;10.69;88.59
45129;BME280;35512;56.312;101.728;2022-09-02T10:13:22;95549.44;;;10.63;88.54
45129;BME280;35512;56.312;101.728;2022-09-02T10:18:56;95548.25;;;10.54;88.91
45129;BME280;35512;56.312;101.728;2022-09-02T10:28:41;95530.91;;;10.40;88.95
45129;BME280;35512;56.312;101.728;2022-09-02T10:31:31;95539.38;;;10.42;88.88
45129;BME280;35512;56.312;101.728;2022-09-02T10:37:16;95539.00;;;10.40;88.71
45129;BME280;35512;56.312;101.728;2022-09-02T10:40:18;95540.16;;;10.39;88.67
45129;BME280;35512;56.312;101.728;2022-09-02T10:43:03;95534.75;;;10.39;88.71
45129;BME280;35512;56.312;101.728;2022-09-02T10:45:45;95541.28;;;10.38;88.96
45129;BME280;35512;56.312;101.728;2022-09-02T10:48:40;95550.94;;;10.39;88.93
45129;BME280;35512;56.312;101.728;2022-09-02T10:57:20;95536.69;;;10.42;88.75
45129;BME280;35512;56.312;101.728;2022-09-02T11:00:12;95528.56;;;10.42;88.80
45129;BME280;35512;56.312;101.728;2022-09-02T11:03:13;95521.63;;;10.38;88.68
45129;BME280;35512;56.312;101.728;2022-09-02T11:05:51;95535.47;;;10.32;88.63
45129;BME280;35512;56.312;101.728;2022-09-02T11:08:47;95539.69;;;10.26;89.06
45129;BME280;35512;56.312;101.728;2022-09-02T11:11:19;95543.56;;;10.32;88.99
45129;BME280;35512;56.312;101.728;2022-09-02T11:16:59;95539.75;;;10.37;89.28
45129;BME280;35512;56.312;101.728;2022-09-02T11:20:06;95536.66;;;10.35;89.53
45129;BME280;35512;56.312;101.728;2022-09-02T11:25:54;95540.88;;;10.32;89.06
45129;BME280;35512;56.312;101.728;2022-09-02T11:28:37;95543.94;;;10.31;89.69
45129;BME280;35512;56.312;101.728;2022-09-02T11:31:18;95542.00;;;10.28;89.74
45129;BME280;35512;56.312;101.728;2022-09-02T11:33:59;95538.53;;;10.27;90.06
45129;BME280;35512;56.312;101.728;2022-09-02T11:36:37;95543.53;;;10.29;90.00
45129;BME280;35512;56.312;101.728;2022-09-02T11:58:39;95511.13;;;10.11;90.60
45129;BME280;35512;56.312;101.728;2022-09-02T12:15:15;95502.63;;;10.09;90.87
45129;BME280;35512;56.312;101.728;2022-09-02T12:23:07;95523.84;;;10.14;90.98
45129;BME280;35512;56.312;101.728;2022-09-02T12:25:48;95523.47;;;10.12;90.88
45129;BME280;35512;56.312;101.728;2022-09-02T12:28:27;95511.88;;;10.11;90.83
45129;BME280;35512;56.312;101.728;2022-09-02T12:33:39;95499.94;;;10.12;90.89
45129;BME280;35512;56.312;101.728;2022-09-02T12:51:05;95479.13;;;9.98;91.03
45129;BME280;35512;56.312;101.728;2022-09-02T12:56:25;95470.25;;;9.94;91.18
45129;BME280;35512;56.312;101.728;2022-09-02T12:58:55;95470.63;;;9.96;91.37
45129;BME280;35512;56.312;101.728;2022-09-02T13:05:12;95467.16;;;9.89;91.30
45129;BME280;35512;56.312;101.728;2022-09-02T13:14:05;95454.03;;;9.87;91.23
45129;BME280;35512;56.312;101.728;2022-09-02T13:16:43;95464.44;;;9.89;91.50
45129;BME280;35512;56.312;101.728;2022-09-02T13:33:25;95482.22;;;10.08;91.75
45129;BME280;35512;56.312;101.728;2022-09-02T13:35:56;95477.59;;;10.08;91.83
45129;BME280;35512;56.312;101.728;2022-09-02T13:38:28;95473.75;;;10.09;91.88
45129;BME280;35512;56.312;101.728;2022-09-02T13:40:58;95481.84;;;10.13;91.81
45129;BME280;35512;56.312;101.728;2022-09-02T13:43:27;95476.84;;;10.08;91.71
45129;BME280;35512;56.312;101.728;2022-09-02T13:46:00;95486.88;;;10.14;91.77
45129;BME280;35512;56.312;101.728;2022-09-02T13:48:32;95491.50;;;10.18;92.09
45129;BME280;35512;56.312;101.728;2022-09-02T13:51:10;95488.03;;;10.17;92.03
45129;BME280;35512;56.312;101.728;2022-09-02T13:53:44;95487.25;;;10.17;91.73
45129;BME280;35512;56.312;101.728;2022-09-02T13:56:35;95480.31;;;10.12;91.82
45129;BME280;35512;56.312;101.728;2022-09-02T13:59:04;95482.22;;;10.08;91.83
45129;BME280;35512;56.312;101.728;2022-09-02T14:01:35;95487.63;;;10.08;91.73
45129;BME280;35512;56.312;101.728;2022-09-02T14:04:13;95487.63;;;10.08;91.87
45129;BME280;35512;56.312;101.728;2022-09-02T14:06:45;95481.81;;;10.06;92.08
45129;BME280;35512;56.312;101.728;2022-09-02T14:09:24;95484.16;;;10.11;91.99
45129;BME280;35512;56.312;101.728;2022-09-02T14:11:55;95478.75;;;10.07;92.03
45129;BME280;35512;56.312;101.728;2022-09-02T14:14:26;95477.97;;;10.07;91.79
45129;BME280;35512;56.312;101.728;2022-09-02T14:17:22;95477.22;;;10.06;91.79
45129;BME280;35512;56.312;101.728;2022-09-02T14:20:19;95470.66;;;10.04;92.07
45129;BME280;35512;56.312;101.728;2022-09-02T14:22:57;95466.41;;;10.03;92.05
45129;BME280;35512;56.312;101.728;2022-09-02T14:25:34;95459.47;;;9.98;91.90
45129;BME280;35512;56.312;101.728;2022-09-02T14:28:18;95457.16;;;10.00;91.97
45129;BME280;35512;56.312;101.728;2022-09-02T14:31:06;95462.56;;;10.04;91.78
45129;BME280;35512;56.312;101.728;2022-09-02T14:33:43;95454.44;;;10.00;91.87
45129;BME280;35512;56.312;101.728;2022-09-02T14:38:53;95458.69;;;10.01;92.04
45129;BME280;35512;56.312;101.728;2022-09-02T14:41:27;95464.09;;;10.01;92.08
45129;BME280;35512;56.312;101.728;2022-09-02T14:43:59;95456.00;;;10.01;92.08
45129;BME280;35512;56.312;101.728;2022-09-02T14:46:44;95462.53;;;10.00;91.92
45129;BME280;35512;56.312;101.728;2022-09-02T14:49:26;95461.38;;;9.94;91.82
45129;BME280;35512;56.312;101.728;2022-09-02T14:52:02;95456.38;;;9.96;91.85
45129;BME280;35512;56.312;101.728;2022-09-02T14:54:41;95457.13;;;9.93;91.85
45129;BME280;35512;56.312;101.728;2022-09-02T14:57:26;95451.34;;;9.87;91.53
45129;BME280;35512;56.312;101.728;2022-09-02T15:00:05;95455.97;;;9.83;91.64
45129;BME280;35512;56.312;101.728;2022-09-02T15:02:43;95467.09;;;9.81;91.67
45129;BME280;35512;56.312;101.728;2022-09-02T15:05:16;95462.88;;;9.80;91.78
45129;BME280;35512;56.312;101.728;2022-09-02T15:07:45;95460.56;;;9.79;91.73
45129;BME280;35512;56.312;101.728;2022-09-02T15:10:16;95451.28;;;9.73;91.50
45129;BME280;35512;56.312;101.728;2022-09-02T15:12:52;95441.25;;;9.66;91.52
45129;BME280;35512;56.312;101.728;2022-09-02T15:15:25;95447.03;;;9.64;91.53
45129;BME280;35512;56.312;101.728;2022-09-02T15:17:55;95452.03;;;9.59;91.43